Terminal Aerodrome Forecast
Issued by NWS Greer, SC

Home | Current Version | Previous Version | Text Only | Print | Product List | Glossary On
Versions: 1 2 3 4 5 6 7 8 9 10 11 12 13 14 15 16 17 18 19 20 21
000
FTUS42 KGSP 130500
TAFGSP
TAF
KGSP 130520Z 1306/1406 17007KT P6SM FEW060
     FM130900 20003KT P6SM SCT040
     FM131300 24007G15KT P6SM SCT060
     FM140000 25005KT P6SM SCT060=

USA.gov is the U.S. government's official web portal to all federal, state and local government web resources and services.